CheckWX is a tool to help pilots better visualize weather data.  It is not intended as a substitute for an official pre-flight weather briefing.

14:33:39 UTC

EFRO TAF
Rovaniemi Airport
Rovaniemi, Finland
TAF EFRO 161130Z 1612/1712 08007KT 9999 SCT030 BKN075 TEMPO 1612/1618 8000 -SHRA BKN035TCU

Jul-16@
12:00 UTC

Jul-16 @ 12:00 UTC

Jul-17@
12:00 UTC

Jul-17 @ 12:00 UTC

TAF EFRO 161130Z 1612/1712 08007KT 9999 SCT030 BKN075
Wind
  • 080° at 7 KTS
Cloud Levels
  • Scattered at 3,000' AGL
  • Broken at 7,500' AGL

Jul-16@
12:00 UTC

Jul-16 @ 12:00 UTC

Jul-16@
18:00 UTC

Jul-16 @ 18:00 UTC

TEMPO 1612/1618 8000 -SHRA BKN035TCU

Temporary

Temporary Changes expected for less than half the time period

Conditions
Light Rain
Cloud Levels
  • Broken at 3,500' AGL